sensor_id;sensor_type;location;lat;lon;timestamp;pressure;altitude;pressure_sealevel;temperature;humidity
40596;BME280;26304;48.794;9.820;2023-11-21T00:01:57;95743.03;;;16.36;58.75
40596;BME280;26304;48.794;9.820;2023-11-21T00:04:19;95736.28;;;16.34;58.38
40596;BME280;26304;48.794;9.820;2023-11-21T00:06:42;95732.53;;;16.32;58.80
40596;BME280;26304;48.794;9.820;2023-11-21T00:09:07;95726.53;;;16.31;58.75
40596;BME280;26304;48.794;9.820;2023-11-21T00:11:32;95735.16;;;16.32;58.21
40596;BME280;26304;48.794;9.820;2023-11-21T00:13:54;95738.13;;;16.30;58.67
40596;BME280;26304;48.794;9.820;2023-11-21T00:16:17;95735.91;;;16.32;58.79
40596;BME280;26304;48.794;9.820;2023-11-21T00:18:39;95736.28;;;16.31;58.43
40596;BME280;26304;48.794;9.820;2023-11-21T00:21:02;95732.88;;;16.30;58.82
40596;BME280;26304;48.794;9.820;2023-11-21T00:23:24;95728.78;;;16.29;58.63
40596;BME280;26304;48.794;9.820;2023-11-21T00:25:47;95725.78;;;16.31;58.31
40596;BME280;26304;48.794;9.820;2023-11-21T00:28:10;95725.03;;;16.30;58.61
40596;BME280;26304;48.794;9.820;2023-11-21T00:30:33;95728.78;;;16.29;58.18
40596;BME280;26304;48.794;9.820;2023-11-21T00:32:55;95727.66;;;16.30;58.58
40596;BME280;26304;48.794;9.820;2023-11-21T00:35:17;95722.03;;;16.28;58.73
40596;BME280;26304;48.794;9.820;2023-11-21T00:37:40;95729.91;;;16.28;58.29
40596;BME280;26304;48.794;9.820;2023-11-21T00:40:04;95721.66;;;16.26;58.90
40596;BME280;26304;48.794;9.820;2023-11-21T00:42:27;95717.53;;;16.25;58.32
40596;BME280;26304;48.794;9.820;2023-11-21T00:44:51;95726.53;;;16.28;58.32
40596;BME280;26304;48.794;9.820;2023-11-21T00:47:13;95722.03;;;16.28;58.56
40596;BME280;26304;48.794;9.820;2023-11-21T00:49:35;95724.28;;;16.26;58.49
40596;BME280;26304;48.794;9.820;2023-11-21T00:52:00;95719.41;;;16.28;58.60
40596;BME280;26304;48.794;9.820;2023-11-21T00:54:22;95710.78;;;16.24;58.47
40596;BME280;26304;48.794;9.820;2023-11-21T00:56:45;95716.03;;;16.24;58.69
40596;BME280;26304;48.794;9.820;2023-11-21T00:59:08;95715.25;;;16.24;58.52
40596;BME280;26304;48.794;9.820;2023-11-21T01:01:33;95728.00;;;16.25;58.26
40596;BME280;26304;48.794;9.820;2023-11-21T01:03:55;95719.78;;;16.23;58.74
40596;BME280;26304;48.794;9.820;2023-11-21T01:06:18;95719.41;;;16.25;58.67
40596;BME280;26304;48.794;9.820;2023-11-21T01:08:40;95719.03;;;16.26;58.60
40596;BME280;26304;48.794;9.820;2023-11-21T01:11:03;95718.66;;;16.24;58.39
40596;BME280;26304;48.794;9.820;2023-11-21T01:13:25;95719.41;;;16.25;58.58
40596;BME280;26304;48.794;9.820;2023-11-21T01:15:49;95722.03;;;16.28;58.21
40596;BME280;26304;48.794;9.820;2023-11-21T01:18:13;95716.78;;;16.28;58.42
40596;BME280;26304;48.794;9.820;2023-11-21T01:20:35;95712.28;;;16.25;58.50
40596;BME280;26304;48.794;9.820;2023-11-21T01:22:58;95717.16;;;16.27;58.17
40596;BME280;26304;48.794;9.820;2023-11-21T01:25:20;95726.53;;;16.28;58.37
40596;BME280;26304;48.794;9.820;2023-11-21T01:27:43;95720.50;;;16.27;58.53
40596;BME280;26304;48.794;9.820;2023-11-21T01:30:06;95722.75;;;16.25;58.54
40596;BME280;26304;48.794;9.820;2023-11-21T01:32:30;95712.28;;;16.25;57.96
40596;BME280;26304;48.794;9.820;2023-11-21T01:34:54;95715.25;;;16.24;58.83
40596;BME280;26304;48.794;9.820;2023-11-21T01:37:17;95722.03;;;16.28;57.89
40596;BME280;26304;48.794;9.820;2023-11-21T01:39:39;95714.91;;;16.25;58.14
40596;BME280;26304;48.794;9.820;2023-11-21T01:42:01;95720.91;;;16.26;58.56
40596;BME280;26304;48.794;9.820;2023-11-21T01:44:24;95716.78;;;16.25;58.45
40596;BME280;26304;48.794;9.820;2023-11-21T01:46:47;95720.16;;;16.25;58.32
40596;BME280;26304;48.794;9.820;2023-11-21T01:49:10;95719.03;;;16.23;58.26
40596;BME280;26304;48.794;9.820;2023-11-21T01:51:36;95722.75;;;16.22;58.21
40596;BME280;26304;48.794;9.820;2023-11-21T01:53:59;95713.00;;;16.22;58.25
40596;BME280;26304;48.794;9.820;2023-11-21T01:56:21;95713.38;;;16.21;58.09
40596;BME280;26304;48.794;9.820;2023-11-21T01:58:44;95729.50;;;16.23;58.11
40596;BME280;26304;48.794;9.820;2023-11-21T02:01:08;95720.13;;;16.22;58.42
40596;BME280;26304;48.794;9.820;2023-11-21T02:03:31;95717.88;;;16.24;58.28
40596;BME280;26304;48.794;9.820;2023-11-21T02:05:53;95717.53;;;16.25;57.83
40596;BME280;26304;48.794;9.820;2023-11-21T02:08:17;95717.16;;;16.23;58.41
40596;BME280;26304;48.794;9.820;2023-11-21T02:10:40;95711.50;;;16.17;58.78
40596;BME280;26304;48.794;9.820;2023-11-21T02:13:03;95721.25;;;16.17;58.65
40596;BME280;26304;48.794;9.820;2023-11-21T02:15:25;95719.72;;;16.16;58.26
40596;BME280;26304;48.794;9.820;2023-11-21T02:17:50;95707.75;;;16.15;58.73
40596;BME280;26304;48.794;9.820;2023-11-21T02:20:13;95712.25;;;16.18;58.47
40596;BME280;26304;48.794;9.820;2023-11-21T02:22:39;95714.88;;;16.18;58.50
40596;BME280;26304;48.794;9.820;2023-11-21T02:25:05;95704.78;;;16.16;58.72
40596;BME280;26304;48.794;9.820;2023-11-21T02:27:28;95709.97;;;16.13;58.86
40596;BME280;26304;48.794;9.820;2023-11-21T02:29:51;95706.25;;;16.14;58.23
40596;BME280;26304;48.794;9.820;2023-11-21T02:32:13;95708.50;;;16.19;58.56
40596;BME280;26304;48.794;9.820;2023-11-21T02:34:38;95702.53;;;16.19;58.18
40596;BME280;26304;48.794;9.820;2023-11-21T02:37:00;95705.50;;;16.17;58.14
40596;BME280;26304;48.794;9.820;2023-11-21T02:39:22;95707.41;;;16.20;58.31
40596;BME280;26304;48.794;9.820;2023-11-21T02:41:46;95702.50;;;16.15;58.56
40596;BME280;26304;48.794;9.820;2023-11-21T02:44:09;95708.88;;;16.14;58.30
40596;BME280;26304;48.794;9.820;2023-11-21T02:46:32;95712.59;;;16.13;58.41
40596;BME280;26304;48.794;9.820;2023-11-21T02:48:55;95705.50;;;16.13;58.63
40596;BME280;26304;48.794;9.820;2023-11-21T02:51:20;95709.28;;;16.20;58.50
40596;BME280;26304;48.794;9.820;2023-11-21T02:53:42;95713.00;;;16.19;58.15
40596;BME280;26304;48.794;9.820;2023-11-21T02:56:05;95699.88;;;16.15;58.51
40596;BME280;26304;48.794;9.820;2023-11-21T02:58:29;95704.00;;;16.12;58.60
40596;BME280;26304;48.794;9.820;2023-11-21T03:00:52;95699.88;;;16.15;58.00
40596;BME280;26304;48.794;9.820;2023-11-21T03:03:15;95698.38;;;16.10;58.27
40596;BME280;26304;48.794;9.820;2023-11-21T03:05:38;95699.50;;;16.09;58.89
40596;BME280;26304;48.794;9.820;2023-11-21T03:08:00;95701.00;;;16.07;58.74
40596;BME280;26304;48.794;9.820;2023-11-21T03:10:22;95700.22;;;16.06;58.52
40596;BME280;26304;48.794;9.820;2023-11-21T03:12:45;95697.63;;;16.10;58.60
40596;BME280;26304;48.794;9.820;2023-11-21T03:15:09;95693.50;;;16.09;58.64
40596;BME280;26304;48.794;9.820;2023-11-21T03:17:32;95688.25;;;16.09;58.70
40596;BME280;26304;48.794;9.820;2023-11-21T03:19:55;95692.75;;;16.08;58.50
40596;BME280;26304;48.794;9.820;2023-11-21T03:22:18;95697.63;;;16.10;58.69
40596;BME280;26304;48.794;9.820;2023-11-21T03:24:40;95694.25;;;16.06;58.82
40596;BME280;26304;48.794;9.820;2023-11-21T03:27:03;95704.00;;;16.09;58.61
40596;BME280;26304;48.794;9.820;2023-11-21T03:29:26;95700.22;;;16.06;58.79
40596;BME280;26304;48.794;9.820;2023-11-21T03:31:49;95700.63;;;16.08;58.24
40596;BME280;26304;48.794;9.820;2023-11-21T03:34:15;95704.72;;;16.06;58.48
40596;BME280;26304;48.794;9.820;2023-11-21T03:36:37;95702.84;;;16.06;58.75
40596;BME280;26304;48.794;9.820;2023-11-21T03:38:59;95707.72;;;16.04;58.98
40596;BME280;26304;48.794;9.820;2023-11-21T03:41:22;95704.72;;;16.06;58.79
40596;BME280;26304;48.794;9.820;2023-11-21T03:43:44;95705.47;;;16.03;58.44
40596;BME280;26304;48.794;9.820;2023-11-21T03:46:06;95703.97;;;16.05;58.46
40596;BME280;26304;48.794;9.820;2023-11-21T03:48:30;95706.25;;;16.07;58.71
40596;BME280;26304;48.794;9.820;2023-11-21T03:50:54;95703.22;;;16.05;58.59
40596;BME280;26304;48.794;9.820;2023-11-21T03:53:16;95705.09;;;16.04;58.51
40596;BME280;26304;48.794;9.820;2023-11-21T03:55:38;95706.97;;;16.04;58.58
40596;BME280;26304;48.794;9.820;2023-11-21T03:58:01;95704.72;;;16.06;58.29
40596;BME280;26304;48.794;9.820;2023-11-21T04:00:24;95698.75;;;16.05;58.53
40596;BME280;26304;48.794;9.820;2023-11-21T04:02:47;95706.25;;;16.07;58.63
40596;BME280;26304;48.794;9.820;2023-11-21T04:05:13;95703.22;;;16.05;58.28
40596;BME280;26304;48.794;9.820;2023-11-21T04:07:35;95700.59;;;16.05;58.46
40596;BME280;26304;48.794;9.820;2023-11-21T04:09:59;95707.34;;;16.06;58.64
40596;BME280;26304;48.794;9.820;2023-11-21T04:12:21;95703.22;;;16.05;58.20
40596;BME280;26304;48.794;9.820;2023-11-21T04:14:44;95704.72;;;16.06;58.32
40596;BME280;26304;48.794;9.820;2023-11-21T04:17:06;95705.47;;;16.06;58.28
40596;BME280;26304;48.794;9.820;2023-11-21T04:19:28;95704.72;;;16.06;57.98
40596;BME280;26304;48.794;9.820;2023-11-21T04:21:52;95705.50;;;16.10;58.23
40596;BME280;26304;48.794;9.820;2023-11-21T04:24:15;95706.25;;;16.10;58.22
40596;BME280;26304;48.794;9.820;2023-11-21T04:26:37;95700.25;;;16.10;58.31
40596;BME280;26304;48.794;9.820;2023-11-21T04:29:00;95703.25;;;16.08;57.94
40596;BME280;26304;48.794;9.820;2023-11-21T04:31:22;95700.97;;;16.03;58.51
40596;BME280;26304;48.794;9.820;2023-11-21T04:33:45;95703.59;;;16.03;58.57
40596;BME280;26304;48.794;9.820;2023-11-21T04:36:07;95709.97;;;16.06;58.22
40596;BME280;26304;48.794;9.820;2023-11-21T04:38:31;95711.47;;;16.07;58.18
40596;BME280;26304;48.794;9.820;2023-11-21T04:40:54;95717.47;;;16.04;58.41
40596;BME280;26304;48.794;9.820;2023-11-21T04:43:16;95717.06;;;16.02;57.85
40596;BME280;26304;48.794;9.820;2023-11-21T04:45:38;95729.78;;;16.00;58.66
40596;BME280;26304;48.794;9.820;2023-11-21T04:48:02;95725.28;;;15.96;58.58
40596;BME280;26304;48.794;9.820;2023-11-21T04:50:25;95731.63;;;15.95;58.87
40596;BME280;26304;48.794;9.820;2023-11-21T04:52:48;95729.78;;;15.96;58.51
40596;BME280;26304;48.794;9.820;2023-11-21T04:55:11;95729.41;;;15.94;58.64
40596;BME280;26304;48.794;9.820;2023-11-21T04:57:34;95729.41;;;15.94;58.41
40596;BME280;26304;48.794;9.820;2023-11-21T04:59:56;95736.13;;;15.95;58.43
40596;BME280;26304;48.794;9.820;2023-11-21T05:02:19;95733.53;;;15.98;58.03
40596;BME280;26304;48.794;9.820;2023-11-21T05:04:42;95736.88;;;15.95;58.22
40596;BME280;26304;48.794;9.820;2023-11-21T05:07:05;95739.50;;;15.95;58.31
40596;BME280;26304;48.794;9.820;2023-11-21T05:09:27;95734.25;;;15.95;58.59
40596;BME280;26304;48.794;9.820;2023-11-21T05:11:54;95729.41;;;15.94;58.00
40596;BME280;26304;48.794;9.820;2023-11-21T05:14:16;95738.03;;;16.02;58.04
40596;BME280;26304;48.794;9.820;2023-11-21T05:16:39;95744.41;;;16.01;58.37
40596;BME280;26304;48.794;9.820;2023-11-21T05:19:02;95748.13;;;15.96;58.25
40596;BME280;26304;48.794;9.820;2023-11-21T05:21:25;95747.34;;;15.95;58.69
40596;BME280;26304;48.794;9.820;2023-11-21T05:23:47;95750.03;;;15.99;58.42
40596;BME280;26304;48.794;9.820;2023-11-21T05:26:09;95742.16;;;15.99;58.10
40596;BME280;26304;48.794;9.820;2023-11-21T05:28:33;95753.75;;;15.98;58.29
40596;BME280;26304;48.794;9.820;2023-11-21T05:30:55;95748.13;;;16.00;57.90
40596;BME280;26304;48.794;9.820;2023-11-21T05:33:18;95760.47;;;15.95;58.40
40596;BME280;26304;48.794;9.820;2023-11-21T05:35:40;95759.72;;;15.91;58.47
40596;BME280;26304;48.794;9.820;2023-11-21T05:38:03;95766.84;;;15.94;58.58
40596;BME280;26304;48.794;9.820;2023-11-21T05:40:26;95766.50;;;16.00;58.55
40596;BME280;26304;48.794;9.820;2023-11-21T05:42:51;95769.47;;;15.94;58.67
40596;BME280;26304;48.794;9.820;2023-11-21T05:45:14;95770.22;;;15.95;59.15
40596;BME280;26304;48.794;9.820;2023-11-21T05:47:38;95773.56;;;15.95;58.74
40596;BME280;26304;48.794;9.820;2023-11-21T05:50:01;95767.59;;;15.95;58.73
40596;BME280;26304;48.794;9.820;2023-11-21T05:52:24;95769.47;;;15.94;58.84
40596;BME280;26304;48.794;9.820;2023-11-21T05:54:46;95776.59;;;15.97;58.89
40596;BME280;26304;48.794;9.820;2023-11-21T05:57:08;95779.22;;;15.97;59.00
40596;BME280;26304;48.794;9.820;2023-11-21T05:59:31;95773.63;;;16.03;58.59
40596;BME280;26304;48.794;9.820;2023-11-21T06:01:55;95775.88;;;16.01;58.77
40596;BME280;26304;48.794;9.820;2023-11-21T06:04:17;95779.59;;;16.03;58.75
40596;BME280;26304;48.794;9.820;2023-11-21T06:06:39;95782.56;;;15.94;59.65
40596;BME280;26304;48.794;9.820;2023-11-21T06:09:02;95782.22;;;15.96;59.45
40596;BME280;26304;48.794;9.820;2023-11-21T06:11:24;95789.72;;;15.97;59.91
40596;BME280;26304;48.794;9.820;2023-11-21T06:13:47;95793.06;;;15.98;59.83
40596;BME280;26304;48.794;9.820;2023-11-21T06:16:10;95789.34;;;15.99;59.86
40596;BME280;26304;48.794;9.820;2023-11-21T06:18:37;95795.31;;;16.00;60.03
40596;BME280;26304;48.794;9.820;2023-11-21T06:20:59;95794.22;;;16.01;59.97
40596;BME280;26304;48.794;9.820;2023-11-21T06:23:21;95795.75;;;16.05;59.89
40596;BME280;26304;48.794;9.820;2023-11-21T06:25:44;95788.63;;;16.06;60.18
40596;BME280;26304;48.794;9.820;2023-11-21T06:28:06;95795.41;;;16.14;60.06
40596;BME280;26304;48.794;9.820;2023-11-21T06:30:28;95797.69;;;16.23;59.72
40596;BME280;26304;48.794;9.820;2023-11-21T06:32:51;95790.53;;;16.16;59.47
40596;BME280;26304;48.794;9.820;2023-11-21T06:35:15;95793.56;;;16.18;60.00
40596;BME280;26304;48.794;9.820;2023-11-21T06:37:37;95786.06;;;16.20;59.72
40596;BME280;26304;48.794;9.820;2023-11-21T06:40:00;95793.94;;;16.20;60.05
40596;BME280;26304;48.794;9.820;2023-11-21T06:42:25;95801.81;;;16.27;59.86
40596;BME280;26304;48.794;9.820;2023-11-21T06:44:48;95804.41;;;16.20;59.91
40596;BME280;26304;48.794;9.820;2023-11-21T06:47:12;95799.13;;;16.13;59.94
40596;BME280;26304;48.794;9.820;2023-11-21T06:49:35;95805.09;;;16.03;60.03
40596;BME280;26304;48.794;9.820;2023-11-21T06:51:58;95810.31;;;15.99;60.17
40596;BME280;26304;48.794;9.820;2023-11-21T06:54:23;95809.53;;;15.98;60.18
40596;BME280;26304;48.794;9.820;2023-11-21T06:56:46;95821.53;;;16.00;60.29
40596;BME280;26304;48.794;9.820;2023-11-21T06:59:09;95822.28;;;16.00;60.15
40596;BME280;26304;48.794;9.820;2023-11-21T07:01:31;95829.03;;;15.97;59.92
40596;BME280;26304;48.794;9.820;2023-11-21T07:03:59;95831.25;;;15.95;60.10
40596;BME280;26304;48.794;9.820;2023-11-21T07:06:22;95837.25;;;15.96;59.73
40596;BME280;26304;48.794;9.820;2023-11-21T07:08:46;95831.66;;;15.97;59.64
40596;BME280;26304;48.794;9.820;2023-11-21T07:11:08;95846.25;;;15.98;59.85
40596;BME280;26304;48.794;9.820;2023-11-21T07:13:31;95843.97;;;15.93;59.70
40596;BME280;26304;48.794;9.820;2023-11-21T07:15:53;95840.22;;;15.91;59.66
40596;BME280;26304;48.794;9.820;2023-11-21T07:18:15;95847.69;;;15.89;59.98
40596;BME280;26304;48.794;9.820;2023-11-21T07:20:38;95850.72;;;15.91;59.54
40596;BME280;26304;48.794;9.820;2023-11-21T07:23:01;95849.19;;;15.90;59.56
40596;BME280;26304;48.794;9.820;2023-11-21T07:25:26;95849.19;;;15.86;60.21
40596;BME280;26304;48.794;9.820;2023-11-21T07:27:48;95859.66;;;15.86;59.40
40596;BME280;26304;48.794;9.820;2023-11-21T07:30:12;95860.03;;;15.88;59.29
40596;BME280;26304;48.794;9.820;2023-11-21T07:32:34;95864.50;;;15.84;59.70
40596;BME280;26304;48.794;9.820;2023-11-21T07:34:57;95864.50;;;15.84;59.26
40596;BME280;26304;48.794;9.820;2023-11-21T07:37:20;95862.25;;;15.83;59.13
40596;BME280;26304;48.794;9.820;2023-11-21T07:39:43;95879.09;;;15.82;59.18
40596;BME280;26304;48.794;9.820;2023-11-21T07:42:06;95868.97;;;15.80;59.80
40596;BME280;26304;48.794;9.820;2023-11-21T07:44:29;95870.09;;;15.79;58.94
40596;BME280;26304;48.794;9.820;2023-11-21T07:46:51;95880.19;;;15.80;58.85
40596;BME280;26304;48.794;9.820;2023-11-21T07:49:18;95875.31;;;15.79;58.77
40596;BME280;26304;48.794;9.820;2023-11-21T07:51:42;95877.16;;;15.75;58.88
40596;BME280;26304;48.794;9.820;2023-11-21T07:54:05;95876.03;;;15.76;59.31
40596;BME280;26304;48.794;9.820;2023-11-21T07:56:27;95888.38;;;15.75;59.24
40596;BME280;26304;48.794;9.820;2023-11-21T07:58:51;95886.13;;;15.74;59.88
40596;BME280;26304;48.794;9.820;2023-11-21T08:01:14;95885.75;;;15.75;59.37
40596;BME280;26304;48.794;9.820;2023-11-21T08:03:36;95881.25;;;15.76;59.07
40596;BME280;26304;48.794;9.820;2023-11-21T08:05:59;95887.31;;;15.76;59.65
40596;BME280;26304;48.794;9.820;2023-11-21T08:08:24;95882.41;;;15.75;59.40
40596;BME280;26304;48.794;9.820;2023-11-21T08:10:46;95881.63;;;15.74;58.75
40596;BME280;26304;48.794;9.820;2023-11-21T08:13:17;95885.38;;;15.73;58.92
40596;BME280;26304;48.794;9.820;2023-11-21T08:15:40;95881.25;;;15.76;58.32
40596;BME280;26304;48.794;9.820;2023-11-21T08:18:06;95882.75;;;15.73;58.64
40596;BME280;26304;48.794;9.820;2023-11-21T08:20:29;95879.06;;;15.78;58.27
40596;BME280;26304;48.794;9.820;2023-11-21T08:22:51;95883.19;;;15.79;58.24
40596;BME280;26304;48.794;9.820;2023-11-21T08:25:14;95882.44;;;15.78;58.50
40596;BME280;26304;48.794;9.820;2023-11-21T08:27:36;95880.56;;;15.79;58.73
40596;BME280;26304;48.794;9.820;2023-11-21T08:29:59;95885.00;;;15.75;58.34
40596;BME280;26304;48.794;9.820;2023-11-21T08:32:23;95886.50;;;15.76;58.25
40596;BME280;26304;48.794;9.820;2023-11-21T08:34:46;95892.53;;;15.76;58.34
40596;BME280;26304;48.794;9.820;2023-11-21T08:37:14;95892.56;;;15.80;58.54
40596;BME280;26304;48.794;9.820;2023-11-21T08:39:37;95891.03;;;15.79;58.46
40596;BME280;26304;48.794;9.820;2023-11-21T08:41:58;95903.78;;;15.80;58.07
40596;BME280;26304;48.794;9.820;2023-11-21T08:44:20;95893.97;;;15.74;58.20
40596;BME280;26304;48.794;9.820;2023-11-21T08:46:44;95901.47;;;15.72;58.51
40596;BME280;26304;48.794;9.820;2023-11-21T08:49:09;95905.94;;;15.71;58.18
40596;BME280;26304;48.794;9.820;2023-11-21T08:51:31;95904.81;;;15.69;58.37
40596;BME280;26304;48.794;9.820;2023-11-21T08:53:53;95903.66;;;15.70;58.44
40596;BME280;26304;48.794;9.820;2023-11-21T08:56:20;95908.53;;;15.68;58.14
40596;BME280;26304;48.794;9.820;2023-11-21T08:58:42;95914.50;;;15.65;57.97
40596;BME280;26304;48.794;9.820;2023-11-21T09:01:05;95916.00;;;15.66;58.38
40596;BME280;26304;48.794;9.820;2023-11-21T09:03:28;95922.34;;;15.65;58.14
40596;BME280;26304;48.794;9.820;2023-11-21T09:05:52;95923.09;;;15.65;58.61
40596;BME280;26304;48.794;9.820;2023-11-21T09:08:14;95916.00;;;15.66;58.05
40596;BME280;26304;48.794;9.820;2023-11-21T09:10:36;95919.34;;;15.62;58.60
40596;BME280;26304;48.794;9.820;2023-11-21T09:13:00;95920.84;;;15.64;58.70
40596;BME280;26304;48.794;9.820;2023-11-21T09:15:22;95919.81;;;15.72;58.42
40596;BME280;26304;48.794;9.820;2023-11-21T09:17:46;95921.97;;;15.66;58.58
40596;BME280;26304;48.794;9.820;2023-11-21T09:20:10;95925.34;;;15.67;58.24
40596;BME280;26304;48.794;9.820;2023-11-21T09:22:34;95930.59;;;15.67;58.00
40596;BME280;26304;48.794;9.820;2023-11-21T09:24:57;95924.63;;;15.70;58.66
40596;BME280;26304;48.794;9.820;2023-11-21T09:27:19;95928.34;;;15.65;58.56
40596;BME280;26304;48.794;9.820;2023-11-21T09:29:42;95931.75;;;15.69;58.64
40596;BME280;26304;48.794;9.820;2023-11-21T09:32:05;95937.38;;;15.71;58.32
40596;BME280;26304;48.794;9.820;2023-11-21T09:34:29;95943.38;;;15.72;58.70
40596;BME280;26304;48.794;9.820;2023-11-21T09:36:53;95944.88;;;15.73;58.46
40596;BME280;26304;48.794;9.820;2023-11-21T09:39:16;95948.63;;;15.72;58.82
40596;BME280;26304;48.794;9.820;2023-11-21T09:41:43;95947.09;;;15.71;59.29
40596;BME280;26304;48.794;9.820;2023-11-21T09:44:08;95946.72;;;15.69;58.92
40596;BME280;26304;48.794;9.820;2023-11-21T09:46:35;95946.00;;;15.72;59.09
40596;BME280;26304;48.794;9.820;2023-11-21T09:49:02;95943.38;;;15.72;59.55
40596;BME280;26304;48.794;9.820;2023-11-21T09:51:27;95949.34;;;15.69;59.04
40596;BME280;26304;48.794;9.820;2023-11-21T09:53:54;95953.06;;;15.68;59.20
40596;BME280;26304;48.794;9.820;2023-11-21T09:56:21;95948.19;;;15.66;59.13
40596;BME280;26304;48.794;9.820;2023-11-21T09:58:45;95953.78;;;15.65;59.23
40596;BME280;26304;48.794;9.820;2023-11-21T10:01:07;95947.06;;;15.64;59.29
40596;BME280;26304;48.794;9.820;2023-11-21T10:03:30;95957.94;;;15.66;59.33
40596;BME280;26304;48.794;9.820;2023-11-21T10:05:53;95945.53;;;15.62;59.59
40596;BME280;26304;48.794;9.820;2023-11-21T10:08:16;95949.69;;;15.64;59.66
40596;BME280;26304;48.794;9.820;2023-11-21T10:10:43;95953.78;;;15.65;59.45
40596;BME280;26304;48.794;9.820;2023-11-21T10:13:09;95957.94;;;15.66;59.26
40596;BME280;26304;48.794;9.820;2023-11-21T10:15:34;95957.94;;;15.66;59.36
40596;BME280;26304;48.794;9.820;2023-11-21T10:17:57;95968.75;;;15.64;59.59
40596;BME280;26304;48.794;9.820;2023-11-21T10:20:20;95959.81;;;15.69;58.99
40596;BME280;26304;48.794;9.820;2023-11-21T10:22:43;95966.56;;;15.70;59.57
40596;BME280;26304;48.794;9.820;2023-11-21T10:25:06;95961.31;;;15.70;59.04
40596;BME280;26304;48.794;9.820;2023-11-21T10:27:29;95956.84;;;15.70;58.98
40596;BME280;26304;48.794;9.820;2023-11-21T10:29:53;95956.06;;;15.70;59.59
40596;BME280;26304;48.794;9.820;2023-11-21T10:32:15;95953.50;;;15.73;59.26
40596;BME280;26304;48.794;9.820;2023-11-21T10:34:38;95952.72;;;15.73;59.48
40596;BME280;26304;48.794;9.820;2023-11-21T10:37:11;95951.63;;;15.74;59.49
40596;BME280;26304;48.794;9.820;2023-11-21T10:39:33;95952.34;;;15.71;59.69
40596;BME280;26304;48.794;9.820;2023-11-21T10:41:56;95962.13;;;15.74;59.49
40596;BME280;26304;48.794;9.820;2023-11-21T10:44:18;95963.22;;;15.73;59.32
40596;BME280;26304;48.794;9.820;2023-11-21T10:46:43;95960.59;;;15.73;59.22
40596;BME280;26304;48.794;9.820;2023-11-21T10:49:05;95959.50;;;15.74;59.39
40596;BME280;26304;48.794;9.820;2023-11-21T10:51:28;95968.47;;;15.73;59.54
40596;BME280;26304;48.794;9.820;2023-11-21T10:53:51;95966.59;;;15.73;59.53
40596;BME280;26304;48.794;9.820;2023-11-21T10:56:14;95965.09;;;15.72;59.24
40596;BME280;26304;48.794;9.820;2023-11-21T10:58:39;95962.84;;;15.71;59.15
40596;BME280;26304;48.794;9.820;2023-11-21T11:01:03;95958.69;;;15.70;59.61
40596;BME280;26304;48.794;9.820;2023-11-21T11:03:29;95965.44;;;15.71;59.30
40596;BME280;26304;48.794;9.820;2023-11-21T11:05:54;95957.59;;;15.71;59.38
40596;BME280;26304;48.794;9.820;2023-11-21T11:08:18;95963.94;;;15.70;59.70
40596;BME280;26304;48.794;9.820;2023-11-21T11:10:46;95963.19;;;15.69;59.39
40596;BME280;26304;48.794;9.820;2023-11-21T11:13:09;95953.81;;;15.68;59.28
40596;BME280;26304;48.794;9.820;2023-11-21T11:15:31;95958.31;;;15.68;59.22
40596;BME280;26304;48.794;9.820;2023-11-21T11:17:55;95951.56;;;15.67;59.43
40596;BME280;26304;48.794;9.820;2023-11-21T11:20:20;95953.44;;;15.66;59.27
40596;BME280;26304;48.794;9.820;2023-11-21T11:22:49;95955.69;;;15.68;59.20
40596;BME280;26304;48.794;9.820;2023-11-21T11:25:30;95964.28;;;15.68;59.40
40596;BME280;26304;48.794;9.820;2023-11-21T11:28:01;95959.81;;;15.69;59.66
40596;BME280;26304;48.794;9.820;2023-11-21T11:30:34;95955.34;;;15.69;59.50
40596;BME280;26304;48.794;9.820;2023-11-21T11:33:10;95950.44;;;15.68;59.63
40596;BME280;26304;48.794;9.820;2023-11-21T11:35:55;95956.50;;;15.72;59.34
40596;BME280;26304;48.794;9.820;2023-11-21T11:38:21;95955.34;;;15.73;59.56
40596;BME280;26304;48.794;9.820;2023-11-21T11:40:45;95958.75;;;15.73;59.47
40596;BME280;26304;48.794;9.820;2023-11-21T11:43:08;95954.97;;;15.71;59.06
40596;BME280;26304;48.794;9.820;2023-11-21T11:45:32;95962.09;;;15.70;59.26
40596;BME280;26304;48.794;9.820;2023-11-21T11:47:56;95954.59;;;15.72;59.13
40596;BME280;26304;48.794;9.820;2023-11-21T11:50:19;95960.59;;;15.73;59.11
40596;BME280;26304;48.794;9.820;2023-11-21T11:52:43;95960.22;;;15.71;59.52
40596;BME280;26304;48.794;9.820;2023-11-21T11:55:07;95965.06;;;15.69;59.33
40596;BME280;26304;48.794;9.820;2023-11-21T11:57:31;95963.94;;;15.70;59.28
40596;BME280;26304;48.794;9.820;2023-11-21T12:00:13;95963.19;;;15.69;59.26
40596;BME280;26304;48.794;9.820;2023-11-21T12:02:41;95964.34;;;15.72;59.39
40596;BME280;26304;48.794;9.820;2023-11-21T12:05:08;95964.34;;;15.72;59.36
40596;BME280;26304;48.794;9.820;2023-11-21T12:07:40;95960.59;;;15.73;59.40
40596;BME280;26304;48.794;9.820;2023-11-21T12:10:05;95960.97;;;15.71;59.15
40596;BME280;26304;48.794;9.820;2023-11-21T12:12:28;95957.59;;;15.71;59.49
40596;BME280;26304;48.794;9.820;2023-11-21T12:14:51;95962.47;;;15.72;59.36
40596;BME280;26304;48.794;9.820;2023-11-21T12:17:15;95964.34;;;15.72;59.18
40596;BME280;26304;48.794;9.820;2023-11-21T12:19:37;95963.22;;;15.73;59.12
40596;BME280;26304;48.794;9.820;2023-11-21T12:22:00;95961.72;;;15.72;59.13
40596;BME280;26304;48.794;9.820;2023-11-21T12:24:22;95969.22;;;15.73;59.83
40596;BME280;26304;48.794;9.820;2023-11-21T12:26:46;95967.81;;;15.79;59.00
40596;BME280;26304;48.794;9.820;2023-11-21T12:29:09;95972.75;;;15.88;58.91
40596;BME280;26304;48.794;9.820;2023-11-21T12:31:31;95970.16;;;15.92;59.48
40596;BME280;26304;48.794;9.820;2023-11-21T12:33:54;95980.28;;;15.93;59.92
40596;BME280;26304;48.794;9.820;2023-11-21T12:36:17;95975.03;;;15.93;60.38
40596;BME280;26304;48.794;9.820;2023-11-21T12:38:40;95976.53;;;15.91;59.79
40596;BME280;26304;48.794;9.820;2023-11-21T12:41:03;95982.50;;;15.91;59.81